Cormorant, Minnesota
Current Conditions -  °F | °C
As of 11:35 PM on Wednesday 22 Oct 2014 (Local Time) from KDTL Reporting Station
Scattered Clouds Scattered Clouds  
Wind Chill: 52°   Ceiling: Unl
Heat Index: 52°   Visibility: 7mi
Dew Point: 52°   Wind: 3mph
Humidity: 100%   Direction: 180°S
Pressure: 29.93"   Gusts: NA
Location:  46.6222°N, 96.0745°W
Report Text: KDTL 230435Z AUTO 18003KT 7SM SCT006 SCT060 11/11 A2993 RMK AO2
Loading
Personal Weather Stations






























Interactive Weather Map
Tropical Storm Tracking
New forecast layout! Learn more

10-Day Weather Forecast

Advertisements
Track Severe Weather on mobile